Aarhus, Denmark

4:09 AM CET on December 20, 2014 (GMT +0100)
Lystrup | Change Station
CLOSE
Current Station
Personal Weather Station
Location: Lystrup, MIDTJYLLAND
Elevation: 108 ft
Nearby Weather Stations

Elev 108 ft 56.23 °N, 10.23 °E | Updated 19 seconds ago

Light Rain Showers
Light Showers Rain
37.4 °F
Feels Like 37 °F
N
0.0
Wind Variable Wind from NNE
Gusts 0.0 mph

Today
High -- | Low -- °F
--% Chance of Precip.
Yesterday
High -- | Low -- °F
Precip. -- in
8:49 AM 3:44 PM
Waning Crescent, 5% visible
Pressure 29.50 in
Visibility 4.3 miles
Clouds Mostly Cloudy 1500 ft
Mostly Cloudy 2200 ft
Windchill 37 °F
Dew Point 32 °F
Humidity 79%
Rainfall 0.02 in
Snow Depth Not available.
UV 0 out of 12
Pollen Not available.
Air Quality Not available.
Flu Activity Not available.
METAR EKAH 200250Z AUTO 25011G22KT 200V300 7000NDV -SHRA BKN015/// BKN022/// 04/01 Q0999

More Conditions Fewer Conditions

Pressure 29.50 in
Visibility 4.3 miles
Clouds Mostly Cloudy 1500 ft
Mostly Cloudy 2200 ft
Windchill 37 °F
Dew Point 32 °F
Humidity 79%
Rainfall 0.02 in
Snow Depth Not available.
UV 0 out of 12
Pollen Not available.
Air Quality Not available.
Flu Activity Not available.
METAR EKAH 200250Z AUTO 25011G22KT 200V300 7000NDV -SHRA BKN015/// BKN022/// 04/01 Q0999

More Conditions Fewer Conditions

10-Day Weather Forecast

Almanac

Astronomy

Dec. 20, 2014 Rise Set
Actual Time
Civil Twilight
Nautical Twilight
Astronomical Twilight
Moon
Length of Visible Light
Length of Day
Tomorrow will be .
, % of the Moon is Illuminated

Today's Extremes

Country Highs Country Lows

Community

WunderPhotos

Upload Photos

1,779,119 photos uploaded!

WunderBlogs® & News

Nearby

Air Quality

  Air Quality AQ Index Pollutant
Not available.

Snow Depth

Station Depth Elevation

Earthquake Activity

City Distance Mag. Time & Date
Minimum magnitude displayed is 2.5.

Coastal Water Temperatures

Place Temperature

Nearby Weather Stations